sensor_id;sensor_type;location;lat;lon;timestamp;P1;durP1;ratioP1;P2;durP2;ratioP2
22715;SDS011;11525;51.152;4.456;2022-08-19T00:00:13;34.80;;;30.75;;
22715;SDS011;11525;51.152;4.456;2022-08-19T00:02:39;36.60;;;29.98;;
22715;SDS011;11525;51.152;4.456;2022-08-19T00:05:06;33.83;;;29.80;;
22715;SDS011;11525;51.152;4.456;2022-08-19T00:07:33;35.05;;;30.05;;
22715;SDS011;11525;51.152;4.456;2022-08-19T00:09:59;37.17;;;32.45;;
22715;SDS011;11525;51.152;4.456;2022-08-19T00:12:25;39.05;;;33.85;;
22715;SDS011;11525;51.152;4.456;2022-08-19T00:14:51;39.92;;;32.85;;
22715;SDS011;11525;51.152;4.456;2022-08-19T00:17:19;39.85;;;34.45;;
22715;SDS011;11525;51.152;4.456;2022-08-19T00:19:45;41.17;;;36.78;;
22715;SDS011;11525;51.152;4.456;2022-08-19T00:22:11;41.10;;;36.17;;
22715;SDS011;11525;51.152;4.456;2022-08-19T00:24:37;38.97;;;33.88;;
22715;SDS011;11525;51.152;4.456;2022-08-19T00:27:03;37.42;;;33.42;;
22715;SDS011;11525;51.152;4.456;2022-08-19T00:29:30;39.28;;;33.97;;
22715;SDS011;11525;51.152;4.456;2022-08-19T00:31:56;43.88;;;36.88;;
22715;SDS011;11525;51.152;4.456;2022-08-19T00:34:23;40.05;;;34.97;;
22715;SDS011;11525;51.152;4.456;2022-08-19T00:36:54;41.05;;;36.67;;
22715;SDS011;11525;51.152;4.456;2022-08-19T00:39:20;43.45;;;37.85;;
22715;SDS011;11525;51.152;4.456;2022-08-19T00:41:47;43.85;;;38.90;;
22715;SDS011;11525;51.152;4.456;2022-08-19T00:44:16;44.08;;;38.33;;
22715;SDS011;11525;51.152;4.456;2022-08-19T00:46:50;44.47;;;38.13;;
22715;SDS011;11525;51.152;4.456;2022-08-19T00:49:23;47.65;;;38.50;;
22715;SDS011;11525;51.152;4.456;2022-08-19T00:52:17;45.45;;;37.38;;
22715;SDS011;11525;51.152;4.456;2022-08-19T00:54:48;43.80;;;38.05;;
22715;SDS011;11525;51.152;4.456;2022-08-19T00:57:17;48.92;;;39.17;;
22715;SDS011;11525;51.152;4.456;2022-08-19T00:59:47;45.53;;;39.30;;
22715;SDS011;11525;51.152;4.456;2022-08-19T01:02:17;44.08;;;38.60;;
22715;SDS011;11525;51.152;4.456;2022-08-19T01:04:44;50.60;;;39.20;;
22715;SDS011;11525;51.152;4.456;2022-08-19T01:07:13;41.85;;;36.40;;
22715;SDS011;11525;51.152;4.456;2022-08-19T01:09:39;48.70;;;39.38;;
22715;SDS011;11525;51.152;4.456;2022-08-19T01:12:08;47.15;;;38.72;;
22715;SDS011;11525;51.152;4.456;2022-08-19T01:14:34;45.20;;;38.10;;
22715;SDS011;11525;51.152;4.456;2022-08-19T01:17:03;51.25;;;40.78;;
22715;SDS011;11525;51.152;4.456;2022-08-19T01:19:40;48.55;;;40.75;;
22715;SDS011;11525;51.152;4.456;2022-08-19T01:24:49;47.55;;;39.58;;
22715;SDS011;11525;51.152;4.456;2022-08-19T01:27:15;53.17;;;43.70;;
22715;SDS011;11525;51.152;4.456;2022-08-19T01:29:42;52.08;;;41.58;;
22715;SDS011;11525;51.152;4.456;2022-08-19T01:32:12;50.17;;;40.13;;
22715;SDS011;11525;51.152;4.456;2022-08-19T01:34:40;54.35;;;42.58;;
22715;SDS011;11525;51.152;4.456;2022-08-19T01:37:08;50.00;;;40.50;;
22715;SDS011;11525;51.152;4.456;2022-08-19T01:39:36;52.90;;;41.08;;
22715;SDS011;11525;51.152;4.456;2022-08-19T01:42:03;47.53;;;40.42;;
22715;SDS011;11525;51.152;4.456;2022-08-19T01:44:30;49.78;;;38.67;;
22715;SDS011;11525;51.152;4.456;2022-08-19T01:46:56;56.28;;;40.78;;
22715;SDS011;11525;51.152;4.456;2022-08-19T01:49:22;56.55;;;42.00;;
22715;SDS011;11525;51.152;4.456;2022-08-19T01:51:50;47.90;;;37.97;;
22715;SDS011;11525;51.152;4.456;2022-08-19T01:54:16;52.78;;;41.40;;
22715;SDS011;11525;51.152;4.456;2022-08-19T01:56:43;51.25;;;39.90;;
22715;SDS011;11525;51.152;4.456;2022-08-19T01:59:13;50.05;;;38.90;;
22715;SDS011;11525;51.152;4.456;2022-08-19T02:01:41;56.08;;;41.70;;
22715;SDS011;11525;51.152;4.456;2022-08-19T02:04:06;57.88;;;44.92;;
22715;SDS011;11525;51.152;4.456;2022-08-19T02:06:33;55.72;;;44.22;;
22715;SDS011;11525;51.152;4.456;2022-08-19T02:08:58;55.53;;;43.38;;
22715;SDS011;11525;51.152;4.456;2022-08-19T02:11:26;60.55;;;45.58;;
22715;SDS011;11525;51.152;4.456;2022-08-19T02:13:56;63.22;;;46.63;;
22715;SDS011;11525;51.152;4.456;2022-08-19T02:16:22;58.72;;;44.97;;
22715;SDS011;11525;51.152;4.456;2022-08-19T02:18:48;58.13;;;46.40;;
22715;SDS011;11525;51.152;4.456;2022-08-19T02:21:15;63.92;;;47.45;;
22715;SDS011;11525;51.152;4.456;2022-08-19T02:23:42;62.65;;;45.63;;
22715;SDS011;11525;51.152;4.456;2022-08-19T02:26:08;62.08;;;46.17;;
22715;SDS011;11525;51.152;4.456;2022-08-19T02:28:34;57.40;;;45.40;;
22715;SDS011;11525;51.152;4.456;2022-08-19T02:31:01;61.63;;;45.83;;
22715;SDS011;11525;51.152;4.456;2022-08-19T02:33:28;62.20;;;47.65;;
22715;SDS011;11525;51.152;4.456;2022-08-19T02:35:54;57.45;;;44.80;;
22715;SDS011;11525;51.152;4.456;2022-08-19T02:38:20;64.07;;;46.47;;
22715;SDS011;11525;51.152;4.456;2022-08-19T02:40:53;69.57;;;48.67;;
22715;SDS011;11525;51.152;4.456;2022-08-19T02:43:21;63.90;;;48.15;;
22715;SDS011;11525;51.152;4.456;2022-08-19T02:45:48;62.05;;;47.30;;
22715;SDS011;11525;51.152;4.456;2022-08-19T02:48:15;65.30;;;48.88;;
22715;SDS011;11525;51.152;4.456;2022-08-19T02:50:42;72.47;;;50.28;;
22715;SDS011;11525;51.152;4.456;2022-08-19T02:53:09;70.93;;;50.53;;
22715;SDS011;11525;51.152;4.456;2022-08-19T02:55:34;64.65;;;47.53;;
22715;SDS011;11525;51.152;4.456;2022-08-19T02:58:06;64.53;;;48.10;;
22715;SDS011;11525;51.152;4.456;2022-08-19T03:00:33;62.47;;;46.63;;
22715;SDS011;11525;51.152;4.456;2022-08-19T03:02:58;59.45;;;44.75;;
22715;SDS011;11525;51.152;4.456;2022-08-19T03:05:25;66.28;;;44.25;;
22715;SDS011;11525;51.152;4.456;2022-08-19T03:07:52;65.60;;;47.20;;
22715;SDS011;11525;51.152;4.456;2022-08-19T03:10:18;62.10;;;45.85;;
22715;SDS011;11525;51.152;4.456;2022-08-19T03:12:44;68.45;;;47.88;;
22715;SDS011;11525;51.152;4.456;2022-08-19T03:15:11;62.60;;;46.28;;
22715;SDS011;11525;51.152;4.456;2022-08-19T03:17:37;65.28;;;46.17;;
22715;SDS011;11525;51.152;4.456;2022-08-19T03:20:03;63.65;;;44.15;;
22715;SDS011;11525;51.152;4.456;2022-08-19T03:22:29;61.88;;;43.25;;
22715;SDS011;11525;51.152;4.456;2022-08-19T03:24:55;61.53;;;43.58;;
22715;SDS011;11525;51.152;4.456;2022-08-19T03:27:21;61.75;;;42.72;;
22715;SDS011;11525;51.152;4.456;2022-08-19T03:29:47;56.70;;;40.47;;
22715;SDS011;11525;51.152;4.456;2022-08-19T03:32:13;59.95;;;40.05;;
22715;SDS011;11525;51.152;4.456;2022-08-19T03:34:39;59.22;;;40.22;;
22715;SDS011;11525;51.152;4.456;2022-08-19T03:37:07;52.95;;;39.08;;
22715;SDS011;11525;51.152;4.456;2022-08-19T03:39:34;55.50;;;38.88;;
22715;SDS011;11525;51.152;4.456;2022-08-19T03:42:02;56.67;;;39.83;;
22715;SDS011;11525;51.152;4.456;2022-08-19T03:44:28;59.20;;;40.70;;
22715;SDS011;11525;51.152;4.456;2022-08-19T03:46:57;59.60;;;40.88;;
22715;SDS011;11525;51.152;4.456;2022-08-19T03:49:27;58.90;;;40.55;;
22715;SDS011;11525;51.152;4.456;2022-08-19T03:51:56;57.40;;;40.83;;
22715;SDS011;11525;51.152;4.456;2022-08-19T03:54:25;64.60;;;41.40;;
22715;SDS011;11525;51.152;4.456;2022-08-19T03:56:53;58.63;;;38.55;;
22715;SDS011;11525;51.152;4.456;2022-08-19T03:59:22;60.22;;;39.40;;
22715;SDS011;11525;51.152;4.456;2022-08-19T04:01:59;54.00;;;38.35;;
22715;SDS011;11525;51.152;4.456;2022-08-19T04:04:27;57.90;;;39.92;;
22715;SDS011;11525;51.152;4.456;2022-08-19T04:06:53;53.67;;;38.35;;
22715;SDS011;11525;51.152;4.456;2022-08-19T04:09:20;54.40;;;37.72;;
22715;SDS011;11525;51.152;4.456;2022-08-19T04:11:47;57.53;;;38.05;;
22715;SDS011;11525;51.152;4.456;2022-08-19T04:14:21;53.67;;;36.90;;
22715;SDS011;11525;51.152;4.456;2022-08-19T04:16:55;51.60;;;36.22;;
22715;SDS011;11525;51.152;4.456;2022-08-19T04:19:22;57.05;;;37.08;;
22715;SDS011;11525;51.152;4.456;2022-08-19T04:21:49;58.05;;;36.42;;
22715;SDS011;11525;51.152;4.456;2022-08-19T04:24:17;52.38;;;33.90;;
22715;SDS011;11525;51.152;4.456;2022-08-19T04:26:44;50.33;;;33.90;;
22715;SDS011;11525;51.152;4.456;2022-08-19T04:29:12;47.03;;;32.72;;
22715;SDS011;11525;51.152;4.456;2022-08-19T04:31:44;51.38;;;33.78;;
22715;SDS011;11525;51.152;4.456;2022-08-19T04:34:11;55.28;;;34.05;;
22715;SDS011;11525;51.152;4.456;2022-08-19T04:36:40;48.72;;;34.40;;
22715;SDS011;11525;51.152;4.456;2022-08-19T04:39:08;48.22;;;32.65;;
22715;SDS011;11525;51.152;4.456;2022-08-19T04:41:37;52.25;;;33.45;;
22715;SDS011;11525;51.152;4.456;2022-08-19T04:44:21;50.65;;;32.63;;
22715;SDS011;11525;51.152;4.456;2022-08-19T04:46:48;44.55;;;32.45;;
22715;SDS011;11525;51.152;4.456;2022-08-19T04:49:15;46.58;;;32.55;;
22715;SDS011;11525;51.152;4.456;2022-08-19T04:51:43;54.15;;;30.73;;
22715;SDS011;11525;51.152;4.456;2022-08-19T04:54:12;47.50;;;30.48;;
22715;SDS011;11525;51.152;4.456;2022-08-19T04:56:39;53.72;;;33.25;;
22715;SDS011;11525;51.152;4.456;2022-08-19T04:59:05;50.47;;;32.10;;
22715;SDS011;11525;51.152;4.456;2022-08-19T05:01:32;46.95;;;31.45;;
22715;SDS011;11525;51.152;4.456;2022-08-19T05:03:59;43.30;;;31.67;;
22715;SDS011;11525;51.152;4.456;2022-08-19T05:06:26;46.22;;;31.02;;
22715;SDS011;11525;51.152;4.456;2022-08-19T05:08:53;50.53;;;31.35;;
22715;SDS011;11525;51.152;4.456;2022-08-19T05:11:21;46.30;;;30.58;;
22715;SDS011;11525;51.152;4.456;2022-08-19T05:13:49;44.67;;;30.17;;
22715;SDS011;11525;51.152;4.456;2022-08-19T05:16:17;45.50;;;28.63;;
22715;SDS011;11525;51.152;4.456;2022-08-19T05:18:44;46.30;;;30.00;;
22715;SDS011;11525;51.152;4.456;2022-08-19T05:21:28;45.85;;;28.92;;
22715;SDS011;11525;51.152;4.456;2022-08-19T05:24:13;42.20;;;28.02;;
22715;SDS011;11525;51.152;4.456;2022-08-19T05:26:40;40.72;;;28.10;;
22715;SDS011;11525;51.152;4.456;2022-08-19T05:29:07;37.65;;;28.20;;
22715;SDS011;11525;51.152;4.456;2022-08-19T05:31:34;42.67;;;29.35;;
22715;SDS011;11525;51.152;4.456;2022-08-19T05:34:01;34.63;;;25.27;;
22715;SDS011;11525;51.152;4.456;2022-08-19T05:36:28;38.95;;;27.70;;
22715;SDS011;11525;51.152;4.456;2022-08-19T05:38:59;41.53;;;25.95;;
22715;SDS011;11525;51.152;4.456;2022-08-19T05:41:25;37.45;;;25.50;;
22715;SDS011;11525;51.152;4.456;2022-08-19T05:43:54;39.42;;;24.77;;
22715;SDS011;11525;51.152;4.456;2022-08-19T05:46:21;33.20;;;21.42;;
22715;SDS011;11525;51.152;4.456;2022-08-19T05:48:48;34.55;;;21.40;;
22715;SDS011;11525;51.152;4.456;2022-08-19T05:51:14;34.83;;;20.13;;
22715;SDS011;11525;51.152;4.456;2022-08-19T05:53:41;33.65;;;22.27;;
22715;SDS011;11525;51.152;4.456;2022-08-19T05:56:11;31.83;;;20.27;;
22715;SDS011;11525;51.152;4.456;2022-08-19T05:58:40;30.63;;;20.55;;
22715;SDS011;11525;51.152;4.456;2022-08-19T06:01:26;35.28;;;20.48;;
22715;SDS011;11525;51.152;4.456;2022-08-19T06:03:52;26.20;;;17.42;;
22715;SDS011;11525;51.152;4.456;2022-08-19T06:06:18;25.55;;;15.45;;
22715;SDS011;11525;51.152;4.456;2022-08-19T06:08:45;33.80;;;17.48;;
22715;SDS011;11525;51.152;4.456;2022-08-19T06:11:17;27.75;;;16.92;;
22715;SDS011;11525;51.152;4.456;2022-08-19T06:13:45;23.15;;;16.38;;
22715;SDS011;11525;51.152;4.456;2022-08-19T06:16:16;26.42;;;16.75;;
22715;SDS011;11525;51.152;4.456;2022-08-19T06:18:52;21.45;;;13.88;;
22715;SDS011;11525;51.152;4.456;2022-08-19T06:21:19;30.70;;;16.52;;
22715;SDS011;11525;51.152;4.456;2022-08-19T06:23:49;27.25;;;15.35;;
22715;SDS011;11525;51.152;4.456;2022-08-19T06:26:16;22.73;;;14.35;;
22715;SDS011;11525;51.152;4.456;2022-08-19T06:28:44;23.50;;;15.40;;
22715;SDS011;11525;51.152;4.456;2022-08-19T06:31:14;19.45;;;14.23;;
22715;SDS011;11525;51.152;4.456;2022-08-19T06:33:46;22.38;;;13.35;;
22715;SDS011;11525;51.152;4.456;2022-08-19T06:36:17;25.02;;;14.30;;
22715;SDS011;11525;51.152;4.456;2022-08-19T06:38:54;23.88;;;13.82;;
22715;SDS011;11525;51.152;4.456;2022-08-19T06:41:22;21.88;;;14.02;;
22715;SDS011;11525;51.152;4.456;2022-08-19T06:43:48;24.77;;;14.90;;
22715;SDS011;11525;51.152;4.456;2022-08-19T06:46:15;29.08;;;14.85;;
22715;SDS011;11525;51.152;4.456;2022-08-19T06:48:42;30.55;;;14.68;;
22715;SDS011;11525;51.152;4.456;2022-08-19T06:51:08;21.45;;;14.18;;
22715;SDS011;11525;51.152;4.456;2022-08-19T06:53:34;29.60;;;14.35;;
22715;SDS011;11525;51.152;4.456;2022-08-19T06:56:00;23.75;;;14.40;;
22715;SDS011;11525;51.152;4.456;2022-08-19T06:58:27;26.25;;;16.00;;
22715;SDS011;11525;51.152;4.456;2022-08-19T07:01:01;24.63;;;14.05;;
22715;SDS011;11525;51.152;4.456;2022-08-19T07:03:29;24.90;;;13.35;;
22715;SDS011;11525;51.152;4.456;2022-08-19T07:05:57;22.90;;;14.57;;
22715;SDS011;11525;51.152;4.456;2022-08-19T07:08:34;25.40;;;15.32;;
22715;SDS011;11525;51.152;4.456;2022-08-19T07:11:02;33.58;;;15.88;;
22715;SDS011;11525;51.152;4.456;2022-08-19T07:13:32;26.10;;;14.90;;
22715;SDS011;11525;51.152;4.456;2022-08-19T07:16:03;23.30;;;14.10;;
22715;SDS011;11525;51.152;4.456;2022-08-19T07:18:32;21.90;;;14.73;;
22715;SDS011;11525;51.152;4.456;2022-08-19T07:21:06;24.92;;;14.23;;
22715;SDS011;11525;51.152;4.456;2022-08-19T07:23:33;31.42;;;15.15;;
22715;SDS011;11525;51.152;4.456;2022-08-19T07:26:09;21.85;;;14.30;;
22715;SDS011;11525;51.152;4.456;2022-08-19T07:28:40;24.80;;;14.50;;
22715;SDS011;11525;51.152;4.456;2022-08-19T07:31:10;23.13;;;13.88;;
22715;SDS011;11525;51.152;4.456;2022-08-19T07:33:43;24.45;;;15.68;;
22715;SDS011;11525;51.152;4.456;2022-08-19T07:36:11;23.73;;;14.55;;
22715;SDS011;11525;51.152;4.456;2022-08-19T07:38:38;29.10;;;16.58;;
22715;SDS011;11525;51.152;4.456;2022-08-19T07:41:06;23.42;;;14.93;;
22715;SDS011;11525;51.152;4.456;2022-08-19T07:43:34;24.55;;;15.25;;
22715;SDS011;11525;51.152;4.456;2022-08-19T07:46:00;19.20;;;13.23;;
22715;SDS011;11525;51.152;4.456;2022-08-19T07:48:26;20.73;;;13.23;;
22715;SDS011;11525;51.152;4.456;2022-08-19T07:50:54;21.35;;;14.23;;
22715;SDS011;11525;51.152;4.456;2022-08-19T07:53:22;25.55;;;14.93;;
22715;SDS011;11525;51.152;4.456;2022-08-19T07:55:48;19.45;;;13.70;;
22715;SDS011;11525;51.152;4.456;2022-08-19T07:58:16;19.67;;;12.73;;
22715;SDS011;11525;51.152;4.456;2022-08-19T08:00:45;15.98;;;12.75;;
22715;SDS011;11525;51.152;4.456;2022-08-19T08:03:12;21.23;;;13.15;;
22715;SDS011;11525;51.152;4.456;2022-08-19T08:05:39;20.15;;;13.52;;
22715;SDS011;11525;51.152;4.456;2022-08-19T08:08:23;19.63;;;13.13;;
22715;SDS011;11525;51.152;4.456;2022-08-19T08:11:05;21.83;;;13.43;;
22715;SDS011;11525;51.152;4.456;2022-08-19T08:13:31;20.67;;;12.52;;
22715;SDS011;11525;51.152;4.456;2022-08-19T08:16:00;22.35;;;11.82;;
22715;SDS011;11525;51.152;4.456;2022-08-19T08:18:26;21.08;;;12.10;;
22715;SDS011;11525;51.152;4.456;2022-08-19T08:20:52;18.75;;;12.60;;
22715;SDS011;11525;51.152;4.456;2022-08-19T08:23:18;17.30;;;10.95;;
22715;SDS011;11525;51.152;4.456;2022-08-19T08:25:47;16.40;;;11.48;;
22715;SDS011;11525;51.152;4.456;2022-08-19T08:28:14;15.75;;;10.88;;
22715;SDS011;11525;51.152;4.456;2022-08-19T08:30:40;20.05;;;11.00;;
22715;SDS011;11525;51.152;4.456;2022-08-19T08:33:08;14.80;;;10.30;;
22715;SDS011;11525;51.152;4.456;2022-08-19T08:35:34;15.68;;;10.05;;
22715;SDS011;11525;51.152;4.456;2022-08-19T08:38:01;18.73;;;10.55;;
22715;SDS011;11525;51.152;4.456;2022-08-19T08:45:59;13.63;;;9.38;;
22715;SDS011;11525;51.152;4.456;2022-08-19T08:51:20;15.45;;;10.60;;
22715;SDS011;11525;51.152;4.456;2022-08-19T08:53:49;13.77;;;9.88;;
22715;SDS011;11525;51.152;4.456;2022-08-19T08:56:16;18.05;;;9.55;;
22715;SDS011;11525;51.152;4.456;2022-08-19T08:59:02;15.50;;;10.00;;
22715;SDS011;11525;51.152;4.456;2022-08-19T09:01:33;13.45;;;10.27;;
22715;SDS011;11525;51.152;4.456;2022-08-19T09:03:59;16.38;;;9.98;;
22715;SDS011;11525;51.152;4.456;2022-08-19T09:09:26;12.85;;;9.48;;
22715;SDS011;11525;51.152;4.456;2022-08-19T09:12:09;17.08;;;9.75;;
22715;SDS011;11525;51.152;4.456;2022-08-19T09:17:14;14.60;;;9.68;;
22715;SDS011;11525;51.152;4.456;2022-08-19T09:19:59;14.80;;;9.10;;
22715;SDS011;11525;51.152;4.456;2022-08-19T09:22:45;19.73;;;9.65;;
22715;SDS011;11525;51.152;4.456;2022-08-19T09:25:18;15.27;;;9.50;;
22715;SDS011;11525;51.152;4.456;2022-08-19T09:27:47;15.65;;;9.85;;
22715;SDS011;11525;51.152;4.456;2022-08-19T09:30:15;11.82;;;9.15;;
22715;SDS011;11525;51.152;4.456;2022-08-19T09:32:43;13.30;;;9.90;;
22715;SDS011;11525;51.152;4.456;2022-08-19T09:35:10;19.33;;;10.05;;
22715;SDS011;11525;51.152;4.456;2022-08-19T09:37:37;11.10;;;9.10;;
22715;SDS011;11525;51.152;4.456;2022-08-19T09:40:03;14.52;;;8.65;;
22715;SDS011;11525;51.152;4.456;2022-08-19T09:42:30;12.93;;;8.88;;
22715;SDS011;11525;51.152;4.456;2022-08-19T09:44:56;14.20;;;10.68;;
22715;SDS011;11525;51.152;4.456;2022-08-19T09:47:21;14.73;;;10.43;;
22715;SDS011;11525;51.152;4.456;2022-08-19T09:49:47;16.50;;;11.40;;
22715;SDS011;11525;51.152;4.456;2022-08-19T09:52:13;15.88;;;11.75;;
22715;SDS011;11525;51.152;4.456;2022-08-19T09:54:41;20.10;;;12.25;;
22715;SDS011;11525;51.152;4.456;2022-08-19T09:57:06;15.20;;;11.13;;
22715;SDS011;11525;51.152;4.456;2022-08-19T09:59:32;18.15;;;11.75;;
22715;SDS011;11525;51.152;4.456;2022-08-19T10:01:58;16.15;;;12.02;;
22715;SDS011;11525;51.152;4.456;2022-08-19T10:04:24;15.52;;;10.90;;
22715;SDS011;11525;51.152;4.456;2022-08-19T10:07:10;15.23;;;10.05;;
22715;SDS011;11525;51.152;4.456;2022-08-19T10:09:36;15.63;;;11.10;;
22715;SDS011;11525;51.152;4.456;2022-08-19T10:12:03;17.98;;;12.23;;
22715;SDS011;11525;51.152;4.456;2022-08-19T10:14:29;20.23;;;12.15;;
22715;SDS011;11525;51.152;4.456;2022-08-19T10:16:56;16.77;;;12.20;;
22715;SDS011;11525;51.152;4.456;2022-08-19T10:19:22;16.80;;;11.82;;
22715;SDS011;11525;51.152;4.456;2022-08-19T10:21:47;15.85;;;11.48;;
22715;SDS011;11525;51.152;4.456;2022-08-19T10:24:13;19.08;;;12.18;;
22715;SDS011;11525;51.152;4.456;2022-08-19T10:26:40;18.65;;;11.32;;
22715;SDS011;11525;51.152;4.456;2022-08-19T10:29:12;18.58;;;11.88;;
22715;SDS011;11525;51.152;4.456;2022-08-19T10:31:40;20.77;;;12.30;;
22715;SDS011;11525;51.152;4.456;2022-08-19T10:34:06;16.63;;;11.48;;
22715;SDS011;11525;51.152;4.456;2022-08-19T10:36:34;19.83;;;12.57;;
22715;SDS011;11525;51.152;4.456;2022-08-19T10:39:03;17.83;;;12.02;;
22715;SDS011;11525;51.152;4.456;2022-08-19T10:41:34;16.70;;;11.80;;
22715;SDS011;11525;51.152;4.456;2022-08-19T10:44:03;17.23;;;11.10;;
22715;SDS011;11525;51.152;4.456;2022-08-19T10:46:35;17.58;;;11.07;;
22715;SDS011;11525;51.152;4.456;2022-08-19T10:49:03;16.65;;;10.93;;
22715;SDS011;11525;51.152;4.456;2022-08-19T10:51:30;17.15;;;10.88;;
22715;SDS011;11525;51.152;4.456;2022-08-19T10:54:15;14.88;;;9.63;;
22715;SDS011;11525;51.152;4.456;2022-08-19T10:56:41;17.60;;;10.23;;
22715;SDS011;11525;51.152;4.456;2022-08-19T10:59:17;14.90;;;10.13;;
22715;SDS011;11525;51.152;4.456;2022-08-19T11:01:48;18.25;;;11.65;;
22715;SDS011;11525;51.152;4.456;2022-08-19T11:04:15;16.25;;;11.18;;
22715;SDS011;11525;51.152;4.456;2022-08-19T11:06:43;16.80;;;11.07;;
22715;SDS011;11525;51.152;4.456;2022-08-19T11:09:12;18.55;;;10.68;;
22715;SDS011;11525;51.152;4.456;2022-08-19T11:11:45;15.30;;;11.45;;
22715;SDS011;11525;51.152;4.456;2022-08-19T11:14:13;18.23;;;12.27;;
22715;SDS011;11525;51.152;4.456;2022-08-19T11:16:41;17.05;;;10.80;;
22715;SDS011;11525;51.152;4.456;2022-08-19T11:19:08;16.65;;;12.07;;
22715;SDS011;11525;51.152;4.456;2022-08-19T11:21:37;13.02;;;10.30;;
22715;SDS011;11525;51.152;4.456;2022-08-19T11:24:09;16.98;;;11.73;;
22715;SDS011;11525;51.152;4.456;2022-08-19T11:26:37;13.05;;;10.23;;
22715;SDS011;11525;51.152;4.456;2022-08-19T11:29:05;15.20;;;9.60;;
22715;SDS011;11525;51.152;4.456;2022-08-19T11:31:36;12.70;;;8.82;;
22715;SDS011;11525;51.152;4.456;2022-08-19T11:34:04;11.38;;;7.85;;
22715;SDS011;11525;51.152;4.456;2022-08-19T11:36:32;10.27;;;7.20;;
22715;SDS011;11525;51.152;4.456;2022-08-19T11:38:59;11.45;;;7.00;;
22715;SDS011;11525;51.152;4.456;2022-08-19T11:41:25;12.40;;;7.82;;
22715;SDS011;11525;51.152;4.456;2022-08-19T11:43:52;11.57;;;7.35;;
22715;SDS011;11525;51.152;4.456;2022-08-19T11:46:21;9.80;;;6.55;;
22715;SDS011;11525;51.152;4.456;2022-08-19T11:48:48;10.57;;;7.15;;
22715;SDS011;11525;51.152;4.456;2022-08-19T11:51:19;9.05;;;6.13;;
22715;SDS011;11525;51.152;4.456;2022-08-19T11:53:46;11.50;;;6.47;;
22715;SDS011;11525;51.152;4.456;2022-08-19T11:56:13;8.30;;;6.82;;
22715;SDS011;11525;51.152;4.456;2022-08-19T11:58:39;9.15;;;6.80;;
22715;SDS011;11525;51.152;4.456;2022-08-19T12:01:07;10.27;;;6.75;;
22715;SDS011;11525;51.152;4.456;2022-08-19T12:03:36;10.05;;;6.28;;
22715;SDS011;11525;51.152;4.456;2022-08-19T12:06:03;9.07;;;6.38;;
22715;SDS011;11525;51.152;4.456;2022-08-19T12:08:33;9.20;;;5.50;;
22715;SDS011;11525;51.152;4.456;2022-08-19T12:10:59;11.63;;;6.40;;
22715;SDS011;11525;51.152;4.456;2022-08-19T12:13:27;9.27;;;5.72;;
22715;SDS011;11525;51.152;4.456;2022-08-19T12:15:56;5.95;;;4.78;;
22715;SDS011;11525;51.152;4.456;2022-08-19T12:18:23;8.98;;;4.95;;
22715;SDS011;11525;51.152;4.456;2022-08-19T12:20:50;5.43;;;3.92;;
22715;SDS011;11525;51.152;4.456;2022-08-19T12:23:17;4.03;;;3.50;;
22715;SDS011;11525;51.152;4.456;2022-08-19T12:25:43;4.72;;;3.83;;
22715;SDS011;11525;51.152;4.456;2022-08-19T12:28:20;6.90;;;3.67;;
22715;SDS011;11525;51.152;4.456;2022-08-19T12:30:48;4.40;;;3.28;;
22715;SDS011;11525;51.152;4.456;2022-08-19T12:33:15;5.75;;;4.07;;
22715;SDS011;11525;51.152;4.456;2022-08-19T12:35:43;4.78;;;2.67;;
22715;SDS011;11525;51.152;4.456;2022-08-19T12:38:10;5.53;;;2.92;;
22715;SDS011;11525;51.152;4.456;2022-08-19T12:40:37;4.55;;;3.15;;
22715;SDS011;11525;51.152;4.456;2022-08-19T12:43:04;5.50;;;3.90;;
22715;SDS011;11525;51.152;4.456;2022-08-19T12:45:31;4.72;;;3.88;;
22715;SDS011;11525;51.152;4.456;2022-08-19T12:47:58;5.38;;;2.95;;
22715;SDS011;11525;51.152;4.456;2022-08-19T12:50:24;3.25;;;2.95;;
22715;SDS011;11525;51.152;4.456;2022-08-19T12:52:50;5.72;;;3.25;;
22715;SDS011;11525;51.152;4.456;2022-08-19T12:55:16;4.60;;;2.85;;
22715;SDS011;11525;51.152;4.456;2022-08-19T12:57:43;3.88;;;3.05;;
22715;SDS011;11525;51.152;4.456;2022-08-19T13:00:14;3.80;;;2.70;;
22715;SDS011;11525;51.152;4.456;2022-08-19T13:02:43;4.95;;;2.88;;
22715;SDS011;11525;51.152;4.456;2022-08-19T13:05:14;3.80;;;2.70;;
22715;SDS011;11525;51.152;4.456;2022-08-19T13:07:47;5.15;;;2.53;;
22715;SDS011;11525;51.152;4.456;2022-08-19T13:10:14;6.15;;;2.92;;
22715;SDS011;11525;51.152;4.456;2022-08-19T13:12:42;5.20;;;2.67;;
22715;SDS011;11525;51.152;4.456;2022-08-19T13:15:12;5.00;;;3.10;;
22715;SDS011;11525;51.152;4.456;2022-08-19T13:17:39;7.25;;;2.60;;
22715;SDS011;11525;51.152;4.456;2022-08-19T13:20:06;9.25;;;2.53;;
22715;SDS011;11525;51.152;4.456;2022-08-19T13:22:34;6.07;;;2.88;;
22715;SDS011;11525;51.152;4.456;2022-08-19T13:25:05;3.47;;;2.45;;
22715;SDS011;11525;51.152;4.456;2022-08-19T13:27:32;4.07;;;2.58;;
22715;SDS011;11525;51.152;4.456;2022-08-19T13:29:58;4.95;;;3.50;;
22715;SDS011;11525;51.152;4.456;2022-08-19T13:32:42;5.75;;;3.22;;
22715;SDS011;11525;51.152;4.456;2022-08-19T13:35:27;6.20;;;2.90;;
22715;SDS011;11525;51.152;4.456;2022-08-19T13:37:52;3.38;;;2.47;;
22715;SDS011;11525;51.152;4.456;2022-08-19T13:40:19;5.53;;;2.25;;
22715;SDS011;11525;51.152;4.456;2022-08-19T13:42:50;3.40;;;2.10;;
22715;SDS011;11525;51.152;4.456;2022-08-19T13:45:18;6.13;;;2.50;;
22715;SDS011;11525;51.152;4.456;2022-08-19T13:47:49;3.97;;;2.67;;
22715;SDS011;11525;51.152;4.456;2022-08-19T13:50:20;5.50;;;3.55;;
22715;SDS011;11525;51.152;4.456;2022-08-19T13:52:50;3.53;;;3.20;;
22715;SDS011;11525;51.152;4.456;2022-08-19T13:55:17;4.90;;;3.80;;
22715;SDS011;11525;51.152;4.456;2022-08-19T13:57:43;4.30;;;3.33;;
22715;SDS011;11525;51.152;4.456;2022-08-19T14:00:14;4.10;;;3.65;;
22715;SDS011;11525;51.152;4.456;2022-08-19T14:02:45;4.82;;;4.30;;
22715;SDS011;11525;51.152;4.456;2022-08-19T14:05:13;5.10;;;3.75;;
22715;SDS011;11525;51.152;4.456;2022-08-19T14:07:40;5.20;;;4.20;;
22715;SDS011;11525;51.152;4.456;2022-08-19T14:10:07;5.75;;;3.75;;
22715;SDS011;11525;51.152;4.456;2022-08-19T14:12:34;6.47;;;4.25;;
22715;SDS011;11525;51.152;4.456;2022-08-19T14:15:01;5.63;;;4.30;;
22715;SDS011;11525;51.152;4.456;2022-08-19T14:17:28;7.82;;;4.72;;
22715;SDS011;11525;51.152;4.456;2022-08-19T14:19:58;5.90;;;4.85;;
22715;SDS011;11525;51.152;4.456;2022-08-19T14:22:34;5.72;;;3.88;;
22715;SDS011;11525;51.152;4.456;2022-08-19T14:25:01;10.00;;;4.07;;
22715;SDS011;11525;51.152;4.456;2022-08-19T14:27:29;6.18;;;3.60;;
22715;SDS011;11525;51.152;4.456;2022-08-19T14:29:54;3.83;;;3.05;;
22715;SDS011;11525;51.152;4.456;2022-08-19T14:32:20;4.78;;;2.88;;
22715;SDS011;11525;51.152;4.456;2022-08-19T14:34:46;3.50;;;2.90;;
22715;SDS011;11525;51.152;4.456;2022-08-19T14:37:12;4.15;;;2.83;;
22715;SDS011;11525;51.152;4.456;2022-08-19T14:39:40;3.63;;;2.80;;
22715;SDS011;11525;51.152;4.456;2022-08-19T14:42:07;6.28;;;3.25;;
22715;SDS011;11525;51.152;4.456;2022-08-19T14:44:34;4.95;;;3.13;;
22715;SDS011;11525;51.152;4.456;2022-08-19T14:47:00;5.97;;;2.63;;
22715;SDS011;11525;51.152;4.456;2022-08-19T14:49:26;2.80;;;1.90;;
22715;SDS011;11525;51.152;4.456;2022-08-19T14:51:51;2.97;;;1.25;;